Time;durP1;ratioP1;P1;durP2;ratioP2;P2;SDS_P1;SDS_P2;PMS_P1;PMS_P2;Temp;Humidity;BMP_temperature;BMP_pressure;BME280_temperature;BME280_humidity;BME280_pressure;Samples;Min_cycle;Max_cycle;Signal;HPM_P1;HPM_P2
2022/10/11 00:01:10;;;;;;;0.85;0.40;;;8.90;99.90;;;;;;6230149;22;20097;-95
2022/10/11 00:03:36;;;;;;;1.43;0.47;;;8.90;99.90;;;;;;6201901;22;20011;-95
2022/10/11 00:06:04;;;;;;;4.13;0.53;;;8.80;99.90;;;;;;6201908;22;20105;-95
2022/10/11 00:08:30;;;;;;;2.55;1.00;;;8.80;99.90;;;;;;6227607;22;20038;-90
2022/10/11 00:14:39;;;;;;;;;;;;;;;;;;;;;
2022/10/11 00:23:43;;;;;;;4.45;0.93;;;8.70;99.90;;;;;;6309427;22;20063;-89
2022/10/11 00:26:10;;;;;;;3.60;0.40;;;8.70;99.90;;;;;;6256556;22;20106;-89
2022/10/11 00:28:37;;;;;;;1.95;0.50;;;8.70;99.90;;;;;;6256504;22;20015;-89
2022/10/11 00:31:14;;;;;;;4.75;0.50;;;8.70;99.90;;;;;;6256815;22;20015;-89
2022/10/11 00:33:40;;;;;;;5.38;0.57;;;8.70;99.90;;;;;;6256798;22;21488;-89
2022/10/11 00:36:07;;;;;;;3.78;0.70;;;8.60;99.90;;;;;;6256997;22;20016;-89
2022/10/11 00:38:33;;;;;;;2.10;0.32;;;8.70;99.90;;;;;;6231699;22;20415;-89
2022/10/11 00:40:59;;;;;;;2.70;0.30;;;8.70;99.90;;;;;;6257089;22;20353;-89
2022/10/11 00:43:29;;;;;;;1.95;0.30;;;8.70;99.90;;;;;;6256997;22;20015;-89
2022/10/11 00:45:55;;;;;;;3.60;0.40;;;8.70;99.90;;;;;;6292930;22;20007;-89
2022/10/11 00:48:30;;;;;;;3.07;0.40;;;8.80;99.90;;;;;;6283121;22;20016;-88
2022/10/11 00:50:59;;;;;;;3.22;1.35;;;8.80;99.90;;;;;;6267647;22;20012;-89
2022/10/11 00:53:27;;;;;;;3.88;0.60;;;8.70;99.90;;;;;;6256153;22;20054;-89
2022/10/11 00:55:59;;;;;;;1.88;0.30;;;8.70;99.90;;;;;;6256558;22;20015;-89
2022/10/11 00:58:25;;;;;;;2.17;0.30;;;8.70;99.90;;;;;;6256364;22;20015;-89
2022/10/11 01:00:52;;;;;;;3.30;0.45;;;8.70;99.90;;;;;;6256386;22;20037;-88
2022/10/11 01:03:23;;;;;;;3.38;0.38;;;8.70;99.90;;;;;;6256228;22;20007;-88
2022/10/11 01:05:49;;;;;;;2.67;0.57;;;8.70;99.90;;;;;;6256368;22;20098;-89
2022/10/11 01:08:15;;;;;;;2.73;0.50;;;8.70;99.90;;;;;;6255951;22;20027;-89
2022/10/11 01:10:41;;;;;;;2.13;0.90;;;8.70;99.90;;;;;;6205974;22;20286;-89
2022/10/11 01:13:34;;;;;;;1.43;0.50;;;8.70;99.90;;;;;;6255671;22;20043;-92
2022/10/11 01:16:14;;;;;;;1.80;0.47;;;8.70;99.90;;;;;;6255987;22;20344;-88
2022/10/11 01:19:02;;;;;;;5.60;0.35;;;8.70;99.90;;;;;;6281583;22;20022;-88
2022/10/11 01:21:29;;;;;;;3.08;0.82;;;8.70;99.90;;;;;;6256047;22;20023;-87
2022/10/11 01:24:06;;;;;;;;;;;8.60;99.90;;;;;;6256181;22;20011;-88
2022/10/11 01:26:51;;;;;;;10.20;1.25;;;8.60;99.90;;;;;;6255729;22;19918;-87
2022/10/11 01:29:28;;;;;;;3.53;0.30;;;8.50;99.90;;;;;;6255624;22;20023;-88
2022/10/11 01:32:06;;;;;;;2.60;0.50;;;8.50;99.90;;;;;;6255544;22;20086;-87
2022/10/11 01:34:40;;;;;;;2.78;0.30;;;8.50;99.90;;;;;;6255813;22;20019;-88
2022/10/11 01:37:29;;;;;;;3.83;0.40;;;8.50;99.90;;;;;;6255981;22;20012;-87
2022/10/11 01:40:02;;;;;;;3.30;0.60;;;8.50;99.90;;;;;;6257092;22;20322;-90
2022/10/11 01:42:29;;;;;;;2.28;0.40;;;8.40;99.90;;;;;;6255909;22;20019;-87
2022/10/11 01:44:57;;;;;;;4.05;0.43;;;8.40;99.90;;;;;;6256381;22;20509;-87
2022/10/11 01:47:25;;;;;;;3.20;0.70;;;8.40;99.90;;;;;;6257074;22;20019;-86
2022/10/11 01:49:57;;;;;;;3.65;0.68;;;8.40;99.90;;;;;;6254986;22;20015;-93
2022/10/11 01:52:25;;;;;;;2.70;0.40;;;8.30;99.90;;;;;;6281004;22;20015;-93
2022/10/11 01:55:17;;;;;;;2.25;0.30;;;8.30;99.90;;;;;;6255223;22;20022;-89
2022/10/11 01:57:58;;;;;;;2.95;0.50;;;8.30;99.90;;;;;;6255468;22;20015;-89
2022/10/11 02:00:30;;;;;;;3.00;0.40;;;8.30;99.90;;;;;;6255466;22;20068;-88
2022/10/11 02:03:27;;;;;;;6.60;0.63;;;8.20;99.90;;;;;;6255487;22;20444;-89
2022/10/11 02:06:02;;;;;;;2.13;0.35;;;8.20;99.90;;;;;;6255336;22;20019;-90
2022/10/11 02:08:56;;;;;;;2.10;0.38;;;8.20;99.90;;;;;;6255428;22;20011;-89
2022/10/11 02:11:31;;;;;;;2.08;0.30;;;8.20;99.90;;;;;;6255446;22;20023;-89
2022/10/11 02:14:20;;;;;;;5.38;0.40;;;8.20;99.90;;;;;;6255491;22;20023;-89
2022/10/11 02:16:49;;;;;;;2.10;0.30;;;8.10;99.90;;;;;;6255672;22;20022;-89
2022/10/11 02:19:18;;;;;;;1.27;0.30;;;8.10;99.90;;;;;;6255223;22;20061;-88
2022/10/11 02:21:48;;;;;;;3.75;0.50;;;8.20;99.90;;;;;;6255317;22;20011;-89
2022/10/11 02:24:23;;;;;;;1.90;0.30;;;8.20;99.90;;;;;;6255154;22;20050;-90
2022/10/11 02:26:53;;;;;;;3.58;0.40;;;8.20;99.90;;;;;;6255435;22;20490;-89
2022/10/11 02:29:21;;;;;;;2.53;0.70;;;8.20;99.90;;;;;;6255081;22;20353;-89
2022/10/11 02:31:49;;;;;;;4.00;0.45;;;8.20;99.90;;;;;;6230107;22;20314;-89
2022/10/11 02:34:29;;;;;;;4.85;0.45;;;8.20;99.90;;;;;;6254937;22;20020;-89
2022/10/11 02:37:07;;;;;;;1.50;0.25;;;8.30;99.90;;;;;;6254670;22;20015;-90
2022/10/11 02:39:36;;;;;;;1.38;0.47;;;8.30;99.90;;;;;;6255359;22;20019;-89
2022/10/11 02:42:05;;;;;;;1.95;0.50;;;8.30;99.90;;;;;;6255122;22;20448;-90
2022/10/11 02:44:36;;;;;;;1.58;0.22;;;8.30;99.90;;;;;;6255180;22;20047;-90
2022/10/11 02:47:03;;;;;;;3.85;0.45;;;8.30;99.90;;;;;;6255850;22;20030;-90
2022/10/11 02:49:30;;;;;;;4.53;0.52;;;8.30;99.90;;;;;;6240353;22;20003;-88
2022/10/11 02:51:57;;;;;;;2.47;0.40;;;8.30;99.90;;;;;;6281290;22;20015;-89
2022/10/11 02:54:24;;;;;;;3.00;0.45;;;8.30;99.90;;;;;;6265037;22;20128;-89
2022/10/11 02:56:50;;;;;;;3.00;0.50;;;8.30;99.90;;;;;;6229821;22;20011;-88
2022/10/11 02:59:16;;;;;;;4.03;0.57;;;8.40;99.90;;;;;;6255236;22;20027;-88
2022/10/11 03:01:42;;;;;;;2.90;0.40;;;8.40;99.90;;;;;;6254617;22;20023;-89
2022/10/11 03:04:08;;;;;;;4.38;0.50;;;8.40;99.90;;;;;;6254897;22;20045;-88
2022/10/11 03:06:34;;;;;;;4.10;0.30;;;8.40;99.90;;;;;;6254857;22;20015;-89
2022/10/11 03:08:59;;;;;;;2.80;0.33;;;8.40;99.90;;;;;;6204705;22;20015;-89
2022/10/11 03:11:25;;;;;;;0.57;0.20;;;8.40;99.90;;;;;;6254989;22;20141;-88
2022/10/11 03:13:51;;;;;;;0.93;0.30;;;8.40;99.90;;;;;;6229636;22;20069;-88
2022/10/11 03:16:17;;;;;;;3.50;0.50;;;8.40;99.90;;;;;;6255133;22;20338;-92
2022/10/11 03:18:42;;;;;;;2.53;0.40;;;8.40;99.90;;;;;;6205043;22;20254;-90
2022/10/11 03:21:08;;;;;;;3.90;0.30;;;8.40;99.90;;;;;;6255228;22;20015;-89
2022/10/11 03:23:34;;;;;;;2.00;0.57;;;8.40;99.90;;;;;;6254717;22;20071;-88
2022/10/11 03:26:00;;;;;;;3.50;0.45;;;8.50;99.90;;;;;;6258165;22;20020;-90
2022/10/11 03:28:26;;;;;;;1.13;0.40;;;8.50;99.90;;;;;;6255513;22;20023;-91
2022/10/11 03:30:52;;;;;;;3.88;0.52;;;8.50;99.90;;;;;;6280962;22;20456;-89
2022/10/11 03:33:18;;;;;;;2.27;0.30;;;8.50;99.90;;;;;;6282329;22;20027;-90
2022/10/11 03:35:45;;;;;;;1.02;0.22;;;8.50;99.90;;;;;;6257043;22;20097;-89
2022/10/11 03:38:14;;;;;;;4.78;0.40;;;8.50;99.90;;;;;;6256921;22;20061;-88
2022/10/11 03:40:41;;;;;;;3.55;0.50;;;8.50;99.90;;;;;;6256843;22;20019;-89
2022/10/11 03:43:07;;;;;;;4.13;0.50;;;8.50;99.90;;;;;;6256844;22;20034;-88
2022/10/11 03:45:33;;;;;;;1.23;0.40;;;8.50;99.90;;;;;;6232060;22;20019;-90
2022/10/11 03:47:59;;;;;;;5.07;0.80;;;8.50;99.90;;;;;;6257027;22;20012;-93
2022/10/11 03:50:24;;;;;;;3.73;0.30;;;8.50;99.90;;;;;;6231913;22;20015;-89
2022/10/11 03:52:50;;;;;;;3.87;0.70;;;8.50;99.90;;;;;;6256942;22;20054;-89
2022/10/11 03:55:16;;;;;;;1.77;0.80;;;8.50;99.90;;;;;;6256780;22;20038;-88
2022/10/11 03:57:42;;;;;;;5.00;0.73;;;8.50;99.90;;;;;;6256642;22;20026;-88
2022/10/11 04:00:27;;;;;;;4.77;0.77;;;8.50;99.90;;;;;;6231597;22;20022;-88
2022/10/11 04:02:52;;;;;;;3.03;0.50;;;8.50;99.90;;;;;;6281736;22;20041;-88
2022/10/11 04:05:18;;;;;;;3.13;0.50;;;8.50;99.90;;;;;;6231519;22;20121;-91
2022/10/11 04:07:44;;;;;;;2.87;0.53;;;8.50;99.90;;;;;;6256546;22;20050;-88
2022/10/11 04:10:09;;;;;;;4.07;0.83;;;8.50;99.90;;;;;;6256239;22;20023;-90
2022/10/11 04:12:37;;;;;;;2.00;0.53;;;8.40;99.90;;;;;;6281948;22;20509;-89
2022/10/11 04:19:08;;;;;;;3.88;0.90;;;8.40;99.90;;;;;;6309508;22;20010;-87
2022/10/11 04:21:33;;;;;;;4.53;0.70;;;8.50;99.90;;;;;;6256829;22;20038;-90
2022/10/11 04:23:59;;;;;;;5.40;0.90;;;8.40;99.90;;;;;;6256205;22;20440;-89
2022/10/11 04:26:25;;;;;;;2.77;0.50;;;8.40;99.90;;;;;;6256957;22;20523;-89
2022/10/11 04:29:07;;;;;;;3.75;0.80;;;8.40;99.90;;;;;;6256853;22;20019;-90
2022/10/11 04:31:32;;;;;;;5.93;0.75;;;8.40;99.90;;;;;;6281747;22;20436;-89
2022/10/11 04:33:58;;;;;;;1.73;0.50;;;8.40;99.90;;;;;;6257035;22;20027;-90
2022/10/11 04:36:24;;;;;;;3.87;1.10;;;8.50;99.90;;;;;;6256529;22;20326;-90
2022/10/11 04:38:50;;;;;;;3.37;0.80;;;8.50;99.90;;;;;;6256249;22;20019;-91
2022/10/11 04:41:16;;;;;;;3.00;0.77;;;8.50;99.90;;;;;;6256561;22;20011;-88
2022/10/11 04:43:42;;;;;;;3.33;0.82;;;8.50;99.90;;;;;;6254442;22;20515;-96
2022/10/11 04:46:08;;;;;;;2.07;0.67;;;8.50;99.90;;;;;;6204843;22;20054;-95
2022/10/11 04:48:35;;;;;;;2.88;0.55;;;8.50;99.90;;;;;;6259206;22;20054;-90
2022/10/11 04:51:00;;;;;;;3.92;0.70;;;8.50;99.90;;;;;;6285313;22;20007;-93
2022/10/11 04:53:26;;;;;;;4.90;0.67;;;8.50;99.90;;;;;;6267706;22;20022;-90
2022/10/11 04:56:17;;;;;;;2.80;0.80;;;8.50;99.90;;;;;;6255796;22;20456;-89
2022/10/11 04:58:44;;;;;;;2.88;0.65;;;8.50;99.90;;;;;;6254031;22;20459;-94
2022/10/11 05:01:10;;;;;;;;;;;8.50;99.90;;;;;;6256408;22;20019;-94
2022/10/11 05:03:36;;;;;;;6.10;0.80;;;8.50;99.90;;;;;;6308564;22;19915;-95
2022/10/11 05:06:02;;;;;;;4.00;0.50;;;8.50;99.90;;;;;;6281537;22;20022;-88
2022/10/11 05:08:28;;;;;;;6.95;0.85;;;8.50;99.90;;;;;;6255868;22;20022;-88
2022/10/11 05:10:58;;;;;;;5.07;0.50;;;8.40;99.90;;;;;;6281916;22;20015;-89
2022/10/11 05:13:25;;;;;;;2.58;0.82;;;8.40;99.90;;;;;;6255918;22;20030;-89
2022/10/11 05:15:52;;;;;;;3.28;0.40;;;8.40;99.90;;;;;;6281336;22;20468;-89
2022/10/11 05:18:18;;;;;;;3.72;0.57;;;8.40;99.90;;;;;;6230503;22;20441;-89
2022/10/11 05:20:43;;;;;;;1.60;0.43;;;8.50;99.90;;;;;;6255252;22;20098;-89
2022/10/11 05:23:09;;;;;;;1.90;0.27;;;8.40;99.90;;;;;;6255274;22;20253;-92
2022/10/11 05:28:11;;;;;;;1.90;0.40;;;8.40;99.90;;;;;;6277741;22;20059;-90
2022/10/11 05:30:36;;;;;;;2.58;0.90;;;8.50;99.90;;;;;;6201199;22;20020;-91
2022/10/11 05:33:02;;;;;;;3.10;0.60;;;8.40;99.90;;;;;;6224540;22;20468;-92
2022/10/11 05:35:28;;;;;;;6.53;0.60;;;8.50;99.90;;;;;;6224146;22;20022;-90
2022/10/11 05:37:54;;;;;;;4.73;0.40;;;8.50;99.90;;;;;;6225819;22;20070;-91
2022/10/11 05:40:20;;;;;;;1.43;0.40;;;8.50;99.90;;;;;;6225294;22;20012;-91
2022/10/11 05:42:45;;;;;;;5.30;0.50;;;8.50;99.90;;;;;;6199613;22;20054;-90
2022/10/11 05:45:11;;;;;;;1.95;0.63;;;8.60;99.90;;;;;;6225913;22;20015;-91
2022/10/11 05:47:37;;;;;;;4.23;0.37;;;8.50;99.90;;;;;;6200511;22;20016;-92
2022/10/11 05:50:03;;;;;;;2.40;0.37;;;8.60;99.90;;;;;;6200326;22;20111;-90
2022/10/11 05:52:29;;;;;;;4.23;0.60;;;8.60;99.90;;;;;;6175569;22;20019;-90
2022/10/11 05:54:58;;;;;;;3.17;0.40;;;8.60;99.90;;;;;;6225120;22;20018;-89
2022/10/11 05:57:23;;;;;;;3.78;0.68;;;8.60;99.90;;;;;;6200421;22;20059;-91
2022/10/11 05:59:49;;;;;;;1.60;0.50;;;8.60;99.90;;;;;;6225412;22;20077;-90
2022/10/11 06:02:15;;;;;;;4.37;0.50;;;8.60;99.90;;;;;;6225597;22;20023;-92
2022/10/11 06:04:40;;;;;;;5.17;0.83;;;8.60;99.90;;;;;;6200548;22;20448;-91
2022/10/11 06:07:06;;;;;;;3.57;0.50;;;8.60;99.90;;;;;;6225676;22;20068;-94
2022/10/11 06:09:35;;;;;;;4.43;0.50;;;8.60;99.90;;;;;;6225383;22;20441;-91
2022/10/11 06:12:01;;;;;;;2.50;0.38;;;8.60;99.90;;;;;;6249655;22;20015;-90
2022/10/11 06:14:27;;;;;;;1.48;0.45;;;8.60;99.90;;;;;;6225203;22;20015;-92
2022/10/11 06:16:53;;;;;;;3.15;0.50;;;8.60;99.90;;;;;;6225169;22;20437;-91
2022/10/11 06:19:19;;;;;;;3.10;0.50;;;8.70;99.90;;;;;;6225254;22;20099;-94
2022/10/11 06:21:45;;;;;;;4.07;0.90;;;8.70;99.90;;;;;;6200364;22;20437;-91
2022/10/11 06:24:11;;;;;;;3.95;0.60;;;8.70;99.90;;;;;;6200462;22;20514;-91
2022/10/11 06:26:37;;;;;;;0.65;0.32;;;8.70;99.90;;;;;;6199987;22;20019;-94
2022/10/11 06:29:04;;;;;;;4.87;1.30;;;8.70;99.90;;;;;;6170725;23;20032;-92
2022/10/11 06:31:30;;;;;;;2.17;0.63;;;8.70;99.90;;;;;;6170396;23;20330;-91
2022/10/11 06:33:57;;;;;;;2.88;0.63;;;8.70;99.90;;;;;;6195110;23;20020;-92
2022/10/11 06:36:24;;;;;;;2.10;0.57;;;8.80;99.90;;;;;;6194903;23;20016;-91
2022/10/11 06:38:54;;;;;;;1.10;0.50;;;8.80;99.90;;;;;;6195082;23;20020;-93
2022/10/11 06:41:23;;;;;;;2.05;0.63;;;8.80;99.90;;;;;;6195029;23;20012;-91
2022/10/11 06:43:49;;;;;;;3.50;0.77;;;8.80;99.90;;;;;;6194896;23;20016;-92
2022/10/11 06:46:18;;;;;;;2.70;0.60;;;8.90;99.90;;;;;;6195182;23;20016;-92
2022/10/11 06:48:47;;;;;;;2.10;0.50;;;8.90;99.90;;;;;;6171637;23;20051;-90
2022/10/11 06:51:31;;;;;;;2.83;0.60;;;8.90;99.90;;;;;;6195467;23;20031;-90
2022/10/11 06:54:01;;;;;;;3.42;0.68;;;9.00;99.90;;;;;;6210591;23;20345;-91
2022/10/11 06:56:28;;;;;;;5.07;0.68;;;9.00;99.90;;;;;;6170660;23;20166;-92
2022/10/11 06:58:56;;;;;;;4.07;0.68;;;9.10;99.90;;;;;;6195008;23;20016;-94
2022/10/11 07:01:22;;;;;;;2.60;0.40;;;9.10;99.90;;;;;;6194495;23;20020;-93
2022/10/11 07:03:53;;;;;;;5.85;1.50;;;9.10;99.90;;;;;;6194705;23;20023;-92
2022/10/11 07:06:21;;;;;;;3.55;0.40;;;9.20;99.90;;;;;;6194670;23;20016;-93
2022/10/11 07:08:47;;;;;;;4.10;0.60;;;9.20;99.90;;;;;;6194613;23;20047;-92
2022/10/11 07:11:24;;;;;;;2.35;0.50;;;9.30;99.90;;;;;;6194642;23;20020;-95
2022/10/11 07:13:55;;;;;;;4.47;0.70;;;9.30;99.90;;;;;;6194819;23;20457;-94
2022/10/11 07:16:21;;;;;;;3.65;0.52;;;9.30;99.90;;;;;;6195149;23;20247;-92
2022/10/11 07:18:50;;;;;;;2.97;0.55;;;9.40;99.90;;;;;;6194612;23;20012;-93
2022/10/11 07:21:19;;;;;;;6.20;0.70;;;9.40;99.90;;;;;;6194993;23;20095;-91
2022/10/11 07:24:08;;;;;;;1.83;0.70;;;9.40;99.90;;;;;;6146733;23;20016;-93
2022/10/11 07:26:36;;;;;;;4.15;0.88;;;9.50;99.90;;;;;;6200204;23;20008;-94
2022/10/11 07:29:13;;;;;;;1.90;0.50;;;9.50;99.90;;;;;;6217141;22;20053;-93
2022/10/11 07:36:04;;;;;;;3.40;0.63;;;9.60;99.90;;;;;;6236897;22;20059;-94
2022/10/11 07:38:43;;;;;;;4.55;1.05;;;9.60;99.90;;;;;;6223201;22;20027;-95
2022/10/11 07:41:13;;;;;;;5.95;1.67;;;9.70;99.90;;;;;;6224951;22;20345;-93
2022/10/11 07:43:51;;;;;;;7.22;1.80;;;9.70;99.90;;;;;;6226755;22;20019;-96
2022/10/11 07:46:17;;;;;;;4.20;0.63;;;9.70;99.90;;;;;;6225069;22;20073;-93
2022/10/11 07:49:14;;;;;;;2.75;0.80;;;9.80;99.90;;;;;;6200089;22;20022;-93
2022/10/11 07:51:49;;;;;;;5.63;1.48;;;9.90;99.90;;;;;;6203985;22;20112;-94
2022/10/11 07:54:15;;;;;;;4.93;1.30;;;9.90;99.90;;;;;;6224969;22;20015;-94
2022/10/11 07:56:40;;;;;;;5.17;1.40;;;9.90;99.90;;;;;;6225310;22;20050;-96
2022/10/11 07:59:06;;;;;;;5.47;1.37;;;10.00;99.90;;;;;;6224925;22;20091;-92
2022/10/11 08:01:32;;;;;;;2.85;0.70;;;10.00;99.90;;;;;;6225139;22;20026;-93
2022/10/11 08:03:58;;;;;;;3.87;0.77;;;10.10;99.90;;;;;;6224517;22;20012;-91
2022/10/11 08:06:30;;;;;;;3.80;1.17;;;10.10;99.90;;;;;;6224533;22;20023;-92
2022/10/11 08:08:57;;;;;;;4.63;1.10;;;10.20;99.90;;;;;;6224546;22;20023;-92
2022/10/11 08:11:24;;;;;;;;;;;10.20;99.90;;;;;;6225516;22;20074;-92
2022/10/11 08:13:50;;;;;;;4.50;0.68;;;10.40;99.90;;;;;;6224261;22;19915;-94
2022/10/11 08:16:16;;;;;;;4.30;0.83;;;10.40;99.90;;;;;;6224589;22;20012;-94
2022/10/11 08:18:42;;;;;;;4.97;0.70;;;10.40;99.90;;;;;;6200834;22;20055;-92
2022/10/11 08:21:14;;;;;;;5.15;0.88;;;10.40;99.90;;;;;;6225275;22;20517;-94
2022/10/11 08:26:15;;;;;;;5.05;0.93;;;10.50;99.90;;;;;;6275729;22;20456;-91
2022/10/11 08:28:41;;;;;;;3.70;0.83;;;10.60;99.90;;;;;;6226004;22;20020;-91
2022/10/11 08:31:10;;;;;;;4.70;0.70;;;10.60;99.90;;;;;;6226401;22;20020;-91
2022/10/11 08:33:36;;;;;;;3.10;0.95;;;10.70;99.90;;;;;;6224852;22;20043;-93
2022/10/11 08:36:04;;;;;;;2.70;0.43;;;10.70;99.90;;;;;;6224161;22;20082;-93
2022/10/11 08:38:30;;;;;;;2.80;0.68;;;10.80;99.90;;;;;;6224575;22;20016;-94
2022/10/11 08:40:58;;;;;;;5.97;0.80;;;10.90;99.90;;;;;;6225226;22;20073;-92
2022/10/11 08:43:31;;;;;;;2.92;0.70;;;10.90;99.90;;;;;;6224964;22;20276;-94
2022/10/11 08:46:00;;;;;;;4.68;1.30;;;11.00;99.90;;;;;;6226281;22;20030;-92
2022/10/11 08:48:35;;;;;;;6.15;1.15;;;11.10;99.90;;;;;;6226621;22;20051;-94
2022/10/11 08:51:10;;;;;;;3.55;0.85;;;11.10;99.90;;;;;;6239907;22;20003;-90
2022/10/11 08:54:05;;;;;;;3.88;1.10;;;11.20;99.90;;;;;;6251739;22;20020;-92
2022/10/11 08:56:35;;;;;;;8.75;1.70;;;11.30;99.90;;;;;;6228699;22;20020;-92
2022/10/11 08:59:12;;;;;;;6.95;1.08;;;11.30;99.90;;;;;;6226210;22;20019;-92
2022/10/11 09:02:17;;;;;;;2.83;1.00;;;11.40;99.90;;;;;;6225812;22;20047;-92
2022/10/11 09:04:43;;;;;;;5.00;0.52;;;11.40;99.90;;;;;;6225599;22;20016;-92
2022/10/11 09:07:43;;;;;;;4.28;1.00;;;11.50;99.90;;;;;;6250966;22;20022;-92
2022/10/11 09:11:00;;;;;;;4.72;0.80;;;11.60;99.90;;;;;;6225750;22;20019;-91
2022/10/11 09:13:42;;;;;;;4.93;1.33;;;11.60;99.90;;;;;;6188139;22;20350;-92
2022/10/11 09:16:56;;;;;;;3.10;0.82;;;11.70;99.90;;;;;;6225856;22;20050;-91
2022/10/11 09:23:02;;;;;;;3.47;0.65;;;11.80;99.90;;;;;;6156160;22;20015;-95
2022/10/11 09:25:59;;;;;;;3.53;0.68;;;11.90;99.90;;;;;;6226001;22;20051;-94
2022/10/11 09:28:46;;;;;;;4.22;1.08;;;12.00;99.90;;;;;;6237749;22;20015;-93
2022/10/11 09:31:11;;;;;;;5.03;0.70;;;12.00;99.90;;;;;;6226450;22;20015;-93
2022/10/11 09:40:53;;;;;;;;;;;12.30;99.90;;;;;;6278923;22;20091;-90
2022/10/11 09:43:19;;;;;;;1.38;0.43;;;12.40;99.90;;;;;;6225090;22;19915;-92
2022/10/11 09:48:53;;;;;;;1.75;0.32;;;12.60;99.90;;;;;;6275516;22;20372;-90
2022/10/11 09:51:24;;;;;;;2.47;0.82;;;12.70;99.90;;;;;;6250407;22;20020;-91
2022/10/11 09:54:00;;;;;;;3.03;0.77;;;12.80;99.90;;;;;;6224893;22;20019;-90
2022/10/11 09:56:29;;;;;;;2.35;0.30;;;12.80;99.90;;;;;;6224726;22;20019;-92
2022/10/11 09:59:34;;;;;;;1.80;0.45;;;13.00;99.90;;;;;;6223306;22;20015;-92
2022/10/11 10:02:12;;;;;;;5.35;0.60;;;13.20;99.90;;;;;;6128354;23;20076;-91
2022/10/11 10:04:55;;;;;;;1.85;0.50;;;13.30;99.90;;;;;;6102042;23;20017;-91
2022/10/11 10:07:21;;;;;;;2.72;0.50;;;13.30;99.90;;;;;;6208059;22;20023;-90
2022/10/11 10:09:48;;;;;;;2.42;0.35;;;13.40;99.90;;;;;;6225123;22;20015;-92
2022/10/11 10:12:22;;;;;;;4.15;0.65;;;13.50;99.90;;;;;;6223522;22;20016;-93
2022/10/11 10:15:12;;;;;;;4.82;0.60;;;13.60;99.90;;;;;;6223806;22;20020;-89
2022/10/11 10:17:38;;;;;;;3.95;0.40;;;13.60;99.90;;;;;;6225142;22;20016;-90
2022/10/11 10:20:05;;;;;;;4.07;0.40;;;13.70;99.90;;;;;;6224921;22;20011;-90
2022/10/11 10:22:34;;;;;;;5.25;1.13;;;13.70;99.90;;;;;;6225144;22;20510;-92
2022/10/11 10:25:06;;;;;;;3.08;0.63;;;13.80;99.90;;;;;;6225042;22;20095;-91
2022/10/11 10:27:32;;;;;;;4.95;1.13;;;13.80;99.90;;;;;;6225091;22;20051;-93
2022/10/11 10:30:00;;;;;;;3.30;0.60;;;13.80;99.90;;;;;;6224981;22;20019;-92
2022/10/11 10:32:53;;;;;;;3.05;0.45;;;13.70;99.90;;;;;;6224904;22;20012;-92
2022/10/11 10:35:52;;;;;;;5.30;0.60;;;13.70;99.90;;;;;;6235395;22;20449;-91
2022/10/11 10:38:28;;;;;;;3.30;0.55;;;13.60;99.90;;;;;;6225167;22;20038;-91
2022/10/11 10:41:00;;;;;;;4.18;0.52;;;13.70;99.90;;;;;;6224790;22;20016;-93
2022/10/11 10:43:33;;;;;;;3.85;0.55;;;13.80;99.90;;;;;;6225208;22;20441;-91
2022/10/11 10:46:45;;;;;;;1.15;0.20;;;13.80;99.90;;;;;;6225224;22;20015;-90
2022/10/11 10:49:20;;;;;;;2.78;0.30;;;13.90;99.90;;;;;;6223634;22;20063;-94
2022/10/11 10:52:04;;;;;;;1.70;0.40;;;14.00;99.90;;;;;;6245577;22;20016;-87
2022/10/11 10:55:02;;;;;;;1.60;0.50;;;14.10;99.90;;;;;;6240322;22;20020;-93
2022/10/11 10:57:32;;;;;;;3.20;0.50;;;14.20;99.90;;;;;;6225140;22;20016;-92
2022/10/11 11:00:14;;;;;;;5.07;0.75;;;14.30;99.90;;;;;;6225025;22;20388;-91
2022/10/11 11:03:00;;;;;;;6.13;0.50;;;14.50;99.90;;;;;;6224987;22;20008;-91
2022/10/11 11:05:44;;;;;;;3.28;0.40;;;14.60;99.90;;;;;;6224735;22;20015;-94
2022/10/11 11:08:28;;;;;;;3.13;0.47;;;14.60;99.90;;;;;;6226533;22;20071;-94
2022/10/11 11:11:07;;;;;;;2.58;0.40;;;14.50;99.90;;;;;;6224996;22;20349;-94
2022/10/11 11:13:43;;;;;;;3.72;0.55;;;14.40;99.90;;;;;;6224921;22;20020;-91
2022/10/11 11:16:30;;;;;;;3.42;0.60;;;14.30;99.90;;;;;;6225253;22;20016;-92
2022/10/11 11:19:11;;;;;;;0.98;0.20;;;14.20;99.90;;;;;;6224920;22;20015;-94
2022/10/11 11:21:44;;;;;;;5.32;0.60;;;14.10;99.90;;;;;;6225082;22;20015;-91
2022/10/11 11:24:13;;;;;;;1.45;0.35;;;14.00;99.90;;;;;;6224798;22;20015;-91
2022/10/11 11:27:07;;;;;;;1.70;0.20;;;13.80;99.90;;;;;;6229800;22;20039;-92
2022/10/11 11:29:48;;;;;;;0.50;0.10;;;13.70;99.90;;;;;;6224752;22;20023;-92
2022/10/11 11:32:46;;;;;;;1.40;0.20;;;13.50;99.90;;;;;;6224879;22;20015;-92
2022/10/11 11:35:42;;;;;;;1.83;0.40;;;13.40;99.90;;;;;;6224855;22;20019;-92
2022/10/11 11:38:23;;;;;;;1.80;0.30;;;13.30;99.90;;;;;;6249869;22;20016;-92
2022/10/11 11:40:55;;;;;;;1.30;0.40;;;13.20;99.90;;;;;;6224916;22;20022;-92
2022/10/11 11:43:55;;;;;;;3.78;0.30;;;13.20;99.90;;;;;;6224819;22;20051;-91
2022/10/11 11:46:30;;;;;;;3.65;0.30;;;13.10;99.90;;;;;;6198753;22;20022;-92
2022/10/11 11:49:01;;;;;;;1.90;0.30;;;13.10;99.90;;;;;;6224350;22;20420;-90
2022/10/11 11:51:34;;;;;;;4.55;0.32;;;13.10;99.90;;;;;;6225682;22;20503;-93
2022/10/11 11:54:19;;;;;;;1.17;0.20;;;13.10;99.90;;;;;;6226684;22;20020;-92
2022/10/11 11:57:01;;;;;;;2.47;0.38;;;13.10;99.90;;;;;;6226433;22;20019;-91
2022/10/11 11:59:48;;;;;;;4.03;0.50;;;13.10;99.90;;;;;;6226637;22;20012;-92
2022/10/11 12:02:31;;;;;;;2.25;0.57;;;13.10;99.90;;;;;;6226786;22;20050;-92
2022/10/11 12:04:58;;;;;;;1.10;0.70;;;13.20;99.90;;;;;;6226589;22;20015;-93
2022/10/11 12:07:26;;;;;;;2.13;0.40;;;13.20;99.90;;;;;;6252042;22;20012;-92
2022/10/11 12:10:13;;;;;;;3.83;0.45;;;13.20;99.90;;;;;;6251365;22;20073;-90
2022/10/11 12:13:21;;;;;;;2.50;0.57;;;13.30;99.90;;;;;;6226439;22;20038;-90
2022/10/11 12:16:01;;;;;;;3.22;0.30;;;13.20;99.90;;;;;;6226435;22;20445;-89
2022/10/11 12:18:52;;;;;;;1.80;0.20;;;13.20;99.90;;;;;;6225939;22;20353;-91
2022/10/11 12:21:35;;;;;;;1.40;0.50;;;13.40;99.90;;;;;;6224093;22;20020;-92
2022/10/11 12:24:19;;;;;;;2.13;0.45;;;13.60;99.90;;;;;;6225944;22;20073;-90
2022/10/11 12:46:45;;;;;;;0.98;0.10;;;14.60;99.90;;;;;;6278181;22;20074;-90
2022/10/11 12:49:23;;;;;;;4.57;1.10;;;14.70;99.90;;;;;;6181031;22;20065;-91
2022/10/11 12:52:19;;;;;;;2.38;0.55;;;14.70;99.90;;;;;;6249925;22;20019;-89
2022/10/11 12:55:12;;;;;;;2.50;0.40;;;14.80;99.90;;;;;;6234395;22;20038;-91
2022/10/11 12:57:57;;;;;;;1.83;0.47;;;14.90;99.90;;;;;;6251294;22;20322;-91
2022/10/11 13:00:42;;;;;;;1.98;0.30;;;14.90;99.90;;;;;;6250792;22;20468;-89
2022/10/11 13:04:02;;;;;;;2.25;0.30;;;15.00;99.90;;;;;;6248934;22;20058;-90
2022/10/11 13:06:52;;;;;;;2.30;0.20;;;14.90;99.90;;;;;;6105805;23;20059;-92
2022/10/11 13:09:29;;;;;;;1.55;0.22;;;14.90;99.90;;;;;;6129867;23;20017;-93
2022/10/11 13:12:04;;;;;;;3.28;0.50;;;14.80;99.90;;;;;;6203606;22;20061;-92
2022/10/11 13:14:35;;;;;;;2.15;0.60;;;14.70;99.90;;;;;;6225832;22;20020;-91
2022/10/11 13:17:01;;;;;;;4.25;0.45;;;14.60;99.90;;;;;;6225856;22;20070;-90
2022/10/11 13:19:28;;;;;;;1.63;0.40;;;14.50;99.90;;;;;;6226030;22;20098;-90
2022/10/11 13:21:57;;;;;;;1.23;0.20;;;14.40;99.90;;;;;;6225436;22;20380;-91
2022/10/11 13:24:27;;;;;;;2.22;0.40;;;14.40;99.90;;;;;;6225707;22;20047;-93
2022/10/11 13:27:22;;;;;;;2.65;0.30;;;14.30;99.90;;;;;;6205635;22;20449;-92
2022/10/11 13:29:52;;;;;;;2.92;0.20;;;14.30;99.90;;;;;;6226810;22;20070;-92
2022/10/11 13:32:27;;;;;;;1.67;0.22;;;14.30;99.90;;;;;;6202546;22;20012;-96
2022/10/11 13:34:55;;;;;;;3.17;0.22;;;14.30;99.90;;;;;;6227522;22;20027;-96
2022/10/11 13:37:32;;;;;;;2.55;0.35;;;14.40;99.90;;;;;;6227370;22;20082;-96
2022/10/11 13:40:13;;;;;;;0.90;0.43;;;14.40;99.90;;;;;;6225240;22;20525;-94
2022/10/11 13:42:39;;;;;;;2.08;0.32;;;14.50;99.90;;;;;;6177859;22;20019;-93
2022/10/11 13:45:11;;;;;;;2.92;0.40;;;14.50;99.90;;;;;;6225609;22;20050;-91
2022/10/11 13:47:38;;;;;;;3.22;0.73;;;14.50;99.90;;;;;;6225354;22;20152;-94
2022/10/11 13:50:16;;;;;;;3.35;0.30;;;14.50;99.90;;;;;;6225077;22;20077;-94
2022/10/11 13:52:53;;;;;;;0.95;0.20;;;14.50;99.90;;;;;;6225482;22;20026;-93
2022/10/11 13:55:29;;;;;;;;;;;14.40;99.90;;;;;;6225730;22;20372;-95
2022/10/11 13:57:59;;;;;;;2.15;0.32;;;14.40;99.90;;;;;;6225600;22;19990;-90
2022/10/11 14:00:55;;;;;;;2.00;0.30;;;14.40;99.90;;;;;;6224994;22;20149;-91
2022/10/11 14:03:23;;;;;;;2.85;0.28;;;14.30;99.90;;;;;;6222820;22;20026;-88
2022/10/11 14:06:07;;;;;;;1.33;0.30;;;14.20;99.90;;;;;;6224517;22;20026;-91
2022/10/11 14:08:40;;;;;;;2.60;0.68;;;14.20;99.90;;;;;;6199014;22;20016;-91
2022/10/11 14:11:08;;;;;;;3.08;0.30;;;14.20;99.90;;;;;;6225345;22;20015;-89
2022/10/11 14:13:43;;;;;;;2.72;0.30;;;14.10;99.90;;;;;;6250458;22;20016;-91
2022/10/11 14:16:30;;;;;;;3.20;0.30;;;14.00;99.90;;;;;;6225401;22;20498;-94
2022/10/11 14:18:58;;;;;;;0.90;0.50;;;14.00;99.90;;;;;;6224866;22;20019;-90
2022/10/11 14:21:30;;;;;;;3.40;0.50;;;13.90;99.90;;;;;;6225436;22;20020;-93
2022/10/11 14:23:57;;;;;;;3.70;0.52;;;13.90;99.90;;;;;;6225388;22;20023;-91